createdAt,value
2018-05-23T00:02:09.432Z,80.90
2018-05-23T00:04:37.219Z,81.70
2018-05-23T00:07:05.005Z,81.50
2018-05-23T00:09:32.711Z,81.40
2018-05-23T00:12:00.461Z,80.80
2018-05-23T00:14:28.190Z,80.80
2018-05-23T00:16:56.559Z,80.80
2018-05-23T00:19:24.311Z,81.00
2018-05-23T00:21:52.831Z,81.00
2018-05-23T00:24:21.045Z,81.00
2018-05-23T00:26:48.762Z,80.60
2018-05-23T00:29:16.521Z,80.00
2018-05-23T00:31:44.219Z,80.60
2018-05-23T00:34:12.236Z,81.40
2018-05-23T00:36:39.959Z,80.70
2018-05-23T00:39:07.677Z,80.90
2018-05-23T00:41:35.429Z,80.90
2018-05-23T00:44:03.162Z,80.90
2018-05-23T00:46:31.027Z,80.60
2018-05-23T00:48:59.507Z,81.40
2018-05-23T00:51:27.219Z,81.10
2018-05-23T00:53:55.060Z,81.10
2018-05-23T00:56:22.761Z,80.80
2018-05-23T00:58:50.483Z,80.90
2018-05-23T01:01:19.352Z,80.80
2018-05-23T01:03:47.842Z,81.60
2018-05-23T01:06:16.309Z,80.60
2018-05-23T01:08:44.173Z,80.60
2018-05-23T01:11:11.876Z,80.70
2018-05-23T01:13:39.588Z,80.10
2018-05-23T01:16:07.792Z,81.20
2018-05-23T01:18:36.303Z,80.10
2018-05-23T01:21:04.032Z,80.10
2018-05-23T01:23:32.682Z,80.00
2018-05-23T01:26:00.437Z,79.90
2018-05-23T01:28:28.920Z,79.00
2018-05-23T01:30:56.650Z,79.00
2018-05-23T01:33:24.364Z,78.70
2018-05-23T01:35:52.232Z,77.20
2018-05-23T01:38:19.955Z,77.50
2018-05-23T01:40:47.696Z,77.90
2018-05-23T01:43:15.443Z,77.10
2018-05-23T01:45:44.349Z,77.20
2018-05-23T01:48:12.063Z,77.20
2018-05-23T01:50:39.814Z,77.80
2018-05-23T01:53:07.539Z,77.80
2018-05-23T01:55:36.004Z,77.40
2018-05-23T01:58:04.550Z,78.10
2018-05-23T02:00:32.414Z,78.10
2018-05-23T02:03:00.121Z,77.60
2018-05-23T02:05:28.608Z,76.00
2018-05-23T02:07:57.107Z,75.80
2018-05-23T02:10:24.816Z,75.80
2018-05-23T02:12:52.671Z,75.60
2018-05-23T02:15:21.189Z,75.50
2018-05-23T02:17:49.667Z,74.50
2018-05-23T02:20:18.192Z,75.30
2018-05-23T02:22:45.989Z,75.30
2018-05-23T02:25:13.702Z,75.30
2018-05-23T02:27:41.416Z,74.50
2018-05-23T02:30:09.222Z,74.80
2018-05-23T02:32:37.705Z,74.60
2018-05-23T02:35:06.238Z,74.40
2018-05-23T02:37:33.958Z,74.50
2018-05-23T02:40:01.679Z,75.30
2018-05-23T02:42:29.424Z,75.50
2018-05-23T02:44:57.126Z,75.10
2018-05-23T02:47:25.669Z,75.10
2018-05-23T02:49:53.390Z,75.00
2018-05-23T02:52:21.114Z,75.20
2018-05-23T02:54:50.420Z,75.90
2018-05-23T02:57:18.131Z,75.30
2018-05-23T02:59:45.835Z,74.80
2018-05-23T03:02:13.620Z,74.50
2018-05-23T03:04:42.108Z,75.00
2018-05-23T03:07:09.826Z,75.10
2018-05-23T03:09:38.065Z,75.00
2018-05-23T03:12:06.544Z,75.00
2018-05-23T03:14:35.011Z,74.90
2018-05-23T03:17:03.544Z,75.30
2018-05-23T03:19:31.290Z,75.20
2018-05-23T03:21:59.002Z,75.00
2018-05-23T03:24:26.786Z,74.70
2018-05-23T03:26:54.523Z,74.20
2018-05-23T03:29:22.239Z,73.70
2018-05-23T03:31:50.023Z,73.70
2018-05-23T03:34:17.894Z,74.00
2018-05-23T03:36:45.612Z,74.00
2018-05-23T03:39:14.104Z,74.10
2018-05-23T03:41:42.626Z,74.00
2018-05-23T03:44:10.481Z,74.00
2018-05-23T03:46:38.204Z,73.90
2018-05-23T03:49:05.945Z,73.80
2018-05-23T03:51:33.687Z,74.80
2018-05-23T03:54:01.387Z,74.80
2018-05-23T03:56:29.144Z,74.70
2018-05-23T03:58:56.847Z,74.90
2018-05-23T04:01:37.417Z,75.30
2018-05-23T04:04:17.079Z,75.40
2018-05-23T04:06:56.919Z,76.40
2018-05-23T04:09:25.527Z,76.40
2018-05-23T04:11:53.234Z,75.90
2018-05-23T04:14:21.844Z,74.30
2018-05-23T04:16:49.544Z,74.40
2018-05-23T04:19:17.244Z,74.20
2018-05-23T04:21:44.980Z,73.80
2018-05-23T04:24:12.736Z,73.40
2018-05-23T04:26:40.484Z,73.20
2018-05-23T04:29:08.179Z,73.00
2018-05-23T04:31:35.913Z,73.10
2018-05-23T04:34:03.612Z,72.80
2018-05-23T04:36:31.344Z,72.90
2018-05-23T04:38:59.079Z,72.70
2018-05-23T04:41:26.923Z,72.20
2018-05-23T04:43:55.394Z,72.20
2018-05-23T04:46:23.079Z,72.20
2018-05-23T04:48:51.655Z,71.90
2018-05-23T04:51:20.145Z,72.00
2018-05-23T04:53:48.614Z,71.50
2018-05-23T04:56:16.444Z,71.50
2018-05-23T04:58:44.147Z,70.60
2018-05-23T05:01:12.735Z,69.70
2018-05-23T05:03:41.361Z,69.50
2018-05-23T05:06:09.075Z,69.40
2018-05-23T05:08:37.549Z,69.70
2018-05-23T05:11:06.396Z,69.00
2018-05-23T05:13:36.483Z,69.00
2018-05-23T05:16:05.108Z,67.60
2018-05-23T05:18:32.804Z,67.60
2018-05-23T05:21:00.546Z,67.00
2018-05-23T05:23:28.272Z,68.00
2018-05-23T05:25:56.127Z,66.60
2018-05-23T05:28:24.591Z,67.00
2018-05-23T05:30:53.081Z,66.30
2018-05-23T05:33:21.708Z,65.40
2018-05-23T05:35:49.407Z,65.20
2018-05-23T05:38:17.121Z,65.00
2018-05-23T05:40:44.865Z,64.80
2018-05-23T05:43:13.845Z,64.80
2018-05-23T05:45:42.313Z,64.90
2018-05-23T05:48:10.027Z,64.90
2018-05-23T05:50:37.763Z,64.20
2018-05-23T05:53:06.256Z,63.60
2018-05-23T05:55:34.731Z,64.40
2018-05-23T05:58:03.344Z,63.10
2018-05-23T06:00:31.048Z,63.10
2018-05-23T06:02:58.764Z,62.60
2018-05-23T06:05:26.504Z,62.90
2018-05-23T06:07:54.964Z,63.90
2018-05-23T06:10:22.815Z,63.80
2018-05-23T06:12:50.516Z,62.10
2018-05-23T06:15:18.996Z,61.20
2018-05-23T06:17:47.989Z,60.20
2018-05-23T06:20:16.465Z,60.00
2018-05-23T06:22:44.965Z,60.10
2018-05-23T06:25:12.714Z,60.10
2018-05-23T06:27:41.192Z,59.10
2018-05-23T06:30:09.707Z,59.10
2018-05-23T06:32:37.422Z,59.10
2018-05-23T06:35:05.198Z,58.60
2018-05-23T06:37:33.657Z,58.50
2018-05-23T06:40:02.130Z,57.60
2018-05-23T06:42:30.249Z,58.10
2018-05-23T06:44:57.965Z,57.20
2018-05-23T06:47:25.680Z,56.60
2018-05-23T06:49:54.264Z,57.20
2018-05-23T06:52:21.930Z,57.00
2018-05-23T06:54:50.539Z,57.80
2018-05-23T06:57:18.247Z,57.80
2018-05-23T06:59:45.956Z,58.70
2018-05-23T07:02:13.693Z,58.80
2018-05-23T07:04:42.319Z,60.00
2018-05-23T07:07:10.016Z,59.80
2018-05-23T07:09:37.716Z,59.20
2018-05-23T07:12:06.237Z,59.30
2018-05-23T07:14:34.029Z,59.30
2018-05-23T07:17:01.784Z,59.40
2018-05-23T07:19:29.484Z,58.40
2018-05-23T07:21:57.947Z,60.20
2018-05-23T07:24:25.716Z,60.20
2018-05-23T07:26:53.403Z,59.10
2018-05-23T07:29:21.116Z,59.70
2018-05-23T07:31:48.943Z,59.20
2018-05-23T07:34:16.641Z,59.00
2018-05-23T07:36:44.352Z,59.10
2018-05-23T07:39:12.938Z,59.90
2018-05-23T07:41:41.420Z,59.90
2018-05-23T07:44:09.922Z,58.90
2018-05-23T07:46:37.772Z,58.90
2018-05-23T07:49:06.242Z,57.90
2018-05-23T07:51:34.719Z,58.20
2018-05-23T07:54:03.234Z,58.10
2018-05-23T07:56:30.949Z,58.10
2018-05-23T07:58:58.692Z,57.60
2018-05-23T08:01:26.406Z,57.00
2018-05-23T08:03:55.026Z,56.60
2018-05-23T08:06:22.719Z,56.60
2018-05-23T08:08:50.423Z,57.00
2018-05-23T08:11:19.030Z,54.90
2018-05-23T08:13:46.727Z,54.90
2018-05-23T08:16:14.441Z,55.50
2018-05-23T08:18:42.262Z,51.70
2018-05-23T08:21:09.964Z,51.30
2018-05-23T08:23:38.450Z,50.70
2018-05-23T08:26:07.057Z,49.90
2018-05-23T08:28:34.796Z,49.90
2018-05-23T08:31:03.270Z,50.30
2018-05-23T08:33:31.867Z,50.70
2018-05-23T08:35:59.567Z,50.70
2018-05-23T08:38:27.273Z,51.00
2018-05-23T08:40:55.785Z,51.30
2018-05-23T08:43:23.519Z,51.20
2018-05-23T08:45:52.052Z,51.00
2018-05-23T08:48:19.760Z,51.00
2018-05-23T08:50:47.501Z,50.40
2018-05-23T08:53:15.208Z,48.30
2018-05-23T08:55:43.719Z,49.30
2018-05-23T08:58:11.452Z,49.20
2018-05-23T09:00:39.941Z,49.20
2018-05-23T09:03:07.721Z,49.20
2018-05-23T09:05:35.423Z,51.30
2018-05-23T09:08:03.120Z,51.30
2018-05-23T09:10:31.611Z,52.40
2018-05-23T09:13:00.079Z,51.40
2018-05-23T09:15:28.632Z,51.00
2018-05-23T09:17:57.161Z,51.20
2018-05-23T09:20:25.633Z,48.90
2018-05-23T09:22:54.139Z,50.50
2018-05-23T09:25:22.102Z,50.50
2018-05-23T09:27:49.781Z,49.60
2018-05-23T09:30:17.479Z,50.20
2018-05-23T09:32:45.230Z,50.80
2018-05-23T09:35:12.938Z,51.60
2018-05-23T09:37:41.488Z,52.20
2018-05-23T09:40:09.201Z,52.10
2018-05-23T09:42:36.914Z,50.80
2018-05-23T09:45:04.898Z,50.80
2018-05-23T09:47:32.559Z,49.60
2018-05-23T09:50:00.252Z,49.60
2018-05-23T09:52:28.751Z,49.40
2018-05-23T09:54:56.588Z,49.40
2018-05-23T09:57:24.303Z,50.30
2018-05-23T09:59:51.997Z,49.30
2018-05-23T10:02:19.778Z,48.80
2018-05-23T10:04:48.280Z,49.70
2018-05-23T10:07:15.979Z,49.60
2018-05-23T10:09:43.806Z,49.40
2018-05-23T10:12:12.286Z,48.90
2018-05-23T10:14:40.764Z,49.30
2018-05-23T10:17:09.260Z,48.00
2018-05-23T10:19:37.325Z,48.60
2018-05-23T10:22:05.071Z,48.00
2018-05-23T10:24:33.565Z,48.60
2018-05-23T10:27:02.108Z,48.40
2018-05-23T10:29:29.814Z,48.40
2018-05-23T10:31:58.286Z,47.40
2018-05-23T10:34:26.789Z,46.70
2018-05-23T10:36:54.499Z,46.70
2018-05-23T10:39:22.227Z,47.00
2018-05-23T10:41:50.689Z,48.20
2018-05-23T10:44:19.200Z,47.90
2018-05-23T10:46:46.929Z,47.90
2018-05-23T10:49:15.389Z,49.00
2018-05-23T10:51:43.173Z,48.10
2018-05-23T10:54:11.620Z,48.10
2018-05-23T10:56:39.831Z,48.10
2018-05-23T10:59:08.312Z,46.70
2018-05-23T11:01:36.065Z,46.60
2018-05-23T11:04:03.804Z,47.20
2018-05-23T11:06:31.508Z,48.20
2018-05-23T11:09:00.186Z,47.30
2018-05-23T11:11:27.849Z,47.20
2018-05-23T11:13:56.311Z,45.90
2018-05-23T11:16:24.041Z,45.80
2018-05-23T11:18:51.736Z,45.30
2018-05-23T11:21:19.481Z,45.60
2018-05-23T11:23:47.193Z,46.00
2018-05-23T11:26:15.694Z,44.30
2018-05-23T11:28:43.398Z,44.30
2018-05-23T11:31:11.138Z,45.70
2018-05-23T11:33:38.976Z,45.40
2018-05-23T11:36:07.456Z,46.00
2018-05-23T11:38:35.156Z,46.00
2018-05-23T11:41:03.009Z,46.70
2018-05-23T11:43:30.711Z,46.20
2018-05-23T11:45:58.407Z,45.80
2018-05-23T11:48:26.899Z,44.90
2018-05-23T11:50:54.602Z,44.90
2018-05-23T11:53:22.378Z,47.00
2018-05-23T11:55:50.155Z,44.80
2018-05-23T11:58:17.864Z,46.00
2018-05-23T12:00:46.358Z,44.90
2018-05-23T12:03:14.049Z,44.10
2018-05-23T12:05:41.781Z,42.90
2018-05-23T12:08:09.486Z,41.60
2018-05-23T12:10:37.448Z,41.30
2018-05-23T12:13:05.100Z,41.60
2018-05-23T12:15:35.170Z,41.90
2018-05-23T12:18:04.609Z,40.10
2018-05-23T12:20:33.846Z,40.10
2018-05-23T12:23:01.651Z,40.40
2018-05-23T12:25:29.837Z,40.70
2018-05-23T12:27:58.117Z,40.80
2018-05-23T12:30:27.788Z,39.20
2018-05-23T12:32:57.814Z,38.80
2018-05-23T12:35:31.136Z,38.90
2018-05-23T12:38:00.752Z,39.10
2018-05-23T12:40:29.787Z,38.80
2018-05-23T12:42:58.773Z,38.80
2018-05-23T12:45:27.503Z,39.50
2018-05-23T12:47:55.237Z,36.50
2018-05-23T12:50:22.981Z,38.30
2018-05-23T12:52:50.743Z,38.90
2018-05-23T12:55:19.992Z,37.90
2018-05-23T12:57:49.932Z,37.90
2018-05-23T13:00:19.528Z,37.00
2018-05-23T13:02:48.203Z,37.20
2018-05-23T13:05:15.919Z,36.90
2018-05-23T13:07:43.633Z,39.10
2018-05-23T13:10:11.496Z,39.20
2018-05-23T13:12:40.043Z,35.50
2018-05-23T13:15:07.709Z,35.60
2018-05-23T13:17:36.487Z,37.20
2018-05-23T13:20:05.213Z,37.30
2018-05-23T13:22:33.705Z,37.20
2018-05-23T13:25:01.453Z,37.30
2018-05-23T13:27:29.922Z,37.80
2018-05-23T13:29:58.901Z,37.80
2018-05-23T13:32:28.357Z,36.10
2018-05-23T13:35:05.615Z,36.10
2018-05-23T13:37:41.258Z,35.90
2018-05-23T13:40:09.040Z,36.50
2018-05-23T13:42:37.805Z,37.70
2018-05-23T13:45:06.892Z,37.70
2018-05-23T13:47:34.745Z,37.10
2018-05-23T13:50:04.302Z,36.30
2018-05-23T13:52:32.031Z,36.40
2018-05-23T13:54:59.880Z,36.10
2018-05-23T13:57:28.484Z,35.40
2018-05-23T13:59:56.571Z,35.90
2018-05-23T14:02:25.840Z,36.50
2018-05-23T14:04:53.550Z,36.40
2018-05-23T14:07:23.544Z,36.80
2018-05-23T14:09:52.038Z,35.60
2018-05-23T14:12:25.383Z,36.70
2018-05-23T14:14:54.796Z,36.70
2018-05-23T14:17:24.209Z,35.50
2018-05-23T14:19:53.905Z,35.70
2018-05-23T14:22:25.656Z,35.80
2018-05-23T14:24:53.608Z,35.90
2018-05-23T14:27:23.090Z,35.30
2018-05-23T14:29:50.977Z,36.60
2018-05-23T14:32:18.746Z,35.90
2018-05-23T14:34:47.472Z,35.70
2018-05-23T14:37:16.003Z,34.90
2018-05-23T14:39:44.386Z,35.40
2018-05-23T14:42:12.903Z,33.60
2018-05-23T14:44:41.468Z,35.00
2018-05-23T14:47:09.164Z,34.80
2018-05-23T14:49:36.857Z,35.60
2018-05-23T14:52:05.402Z,35.00
2018-05-23T14:54:33.257Z,34.80
2018-05-23T14:57:02.731Z,35.60
2018-05-23T14:59:31.244Z,35.50
2018-05-23T15:02:00.698Z,34.80
2018-05-23T15:04:28.533Z,34.80
2018-05-23T15:06:57.750Z,35.50
2018-05-23T15:09:25.952Z,34.30
2018-05-23T15:11:54.481Z,34.30
2018-05-23T15:14:22.348Z,34.30
2018-05-23T15:16:50.934Z,35.50
2018-05-23T15:19:20.294Z,35.40
2018-05-23T15:21:50.152Z,34.80
2018-05-23T15:24:19.034Z,35.40
2018-05-23T15:26:46.792Z,35.30
2018-05-23T15:29:14.501Z,35.30
2018-05-23T15:31:43.053Z,33.20
2018-05-23T15:34:10.750Z,33.20
2018-05-23T15:36:41.137Z,35.00
2018-05-23T15:39:09.552Z,34.90
2018-05-23T15:41:38.076Z,36.50
2018-05-23T15:44:05.811Z,36.50
2018-05-23T15:46:33.515Z,36.40
2018-05-23T15:49:01.245Z,37.30
2018-05-23T15:51:28.976Z,37.10
2018-05-23T15:53:56.667Z,36.90
2018-05-23T15:56:25.164Z,37.50
2018-05-23T15:58:53.875Z,37.50
2018-05-23T16:01:23.343Z,37.20
2018-05-23T16:03:51.070Z,37.20
2018-05-23T16:06:18.844Z,36.70
2018-05-23T16:08:47.332Z,36.30
2018-05-23T16:11:15.877Z,36.40
2018-05-23T16:13:43.595Z,36.50
2018-05-23T16:16:11.306Z,36.50
2018-05-23T16:18:39.919Z,37.10
2018-05-23T16:21:08.387Z,37.10
2018-05-23T16:23:36.121Z,37.60
2018-05-23T16:26:03.858Z,37.70
2018-05-23T16:28:32.109Z,37.70
2018-05-23T16:31:01.008Z,37.20
2018-05-23T16:33:29.470Z,37.00
2018-05-23T16:35:57.180Z,37.00
2018-05-23T16:38:25.433Z,36.80
2018-05-23T16:40:55.000Z,36.40
2018-05-23T16:43:22.730Z,36.40
2018-05-23T16:45:55.589Z,36.00
2018-05-23T16:48:28.012Z,37.00
2018-05-23T16:50:55.979Z,37.10
2018-05-23T16:53:27.287Z,37.40
2018-05-23T16:55:59.888Z,37.40
2018-05-23T16:58:31.157Z,37.40
2018-05-23T17:01:03.633Z,37.80
2018-05-23T17:03:32.136Z,37.60
2018-05-23T17:06:11.252Z,37.70
2018-05-23T17:08:45.195Z,37.80
2018-05-23T17:11:17.471Z,38.10
2018-05-23T17:13:48.431Z,38.10
2018-05-23T17:16:19.722Z,37.90
2018-05-23T17:18:49.484Z,37.20
2018-05-23T17:21:17.688Z,37.30
2018-05-23T17:23:45.484Z,37.00
2018-05-23T17:26:14.646Z,37.30
2018-05-23T17:28:42.427Z,37.20
2018-05-23T17:31:10.447Z,36.40
2018-05-23T17:33:41.047Z,36.00
2018-05-23T17:36:10.720Z,36.20
2018-05-23T17:38:39.272Z,36.20
2018-05-23T17:44:19.982Z,37.20
2018-05-23T17:47:07.217Z,37.90
2018-05-23T17:49:53.280Z,37.80
2018-05-23T17:52:22.496Z,36.50
2018-05-23T17:54:52.575Z,37.00
2018-05-23T17:57:21.124Z,37.60
2018-05-23T17:59:50.120Z,37.80
2018-05-23T18:02:19.205Z,37.60
2018-05-23T18:04:46.984Z,37.50
2018-05-23T18:07:16.437Z,38.10
2018-05-23T18:09:44.476Z,38.10
2018-05-23T18:12:12.463Z,38.00
2018-05-23T18:14:41.852Z,38.10
2018-05-23T18:17:11.545Z,38.70
2018-05-23T18:19:40.130Z,39.50
2018-05-23T18:22:07.896Z,38.80
2018-05-23T18:24:35.591Z,38.80
2018-05-23T18:27:03.320Z,38.80
2018-05-23T18:29:31.159Z,38.60
2018-05-23T18:31:58.892Z,39.00
2018-05-23T18:34:26.745Z,38.50
2018-05-23T18:36:54.457Z,38.10
2018-05-23T18:39:22.933Z,38.80
2018-05-23T18:41:51.819Z,38.30
2018-05-23T18:44:20.280Z,38.20
2018-05-23T18:46:54.977Z,38.20
2018-05-23T18:49:24.732Z,38.70
2018-05-23T18:51:55.359Z,38.30
2018-05-23T18:54:23.931Z,38.30
2018-05-23T18:56:51.621Z,38.10
2018-05-23T18:59:20.825Z,39.30
2018-05-23T19:01:49.905Z,39.30
2018-05-23T19:04:18.246Z,39.40
2018-05-23T19:06:46.048Z,39.30
2018-05-23T19:09:14.522Z,39.60
2018-05-23T19:11:43.043Z,39.80
2018-05-23T19:14:14.075Z,39.80
2018-05-23T19:16:43.189Z,39.60
2018-05-23T19:19:12.132Z,39.90
2018-05-23T19:21:40.618Z,41.00
2018-05-23T19:24:09.120Z,40.20
2018-05-23T19:26:37.362Z,40.20
2018-05-23T19:29:08.046Z,40.40
2018-05-23T19:31:36.604Z,40.30
2018-05-23T19:34:06.049Z,40.80
2018-05-23T19:36:34.845Z,40.80
2018-05-23T19:39:02.706Z,40.40
2018-05-23T19:41:31.199Z,40.70
2018-05-23T19:44:01.303Z,40.90
2018-05-23T19:46:30.740Z,40.90
2018-05-23T19:49:00.105Z,40.80
2018-05-23T19:51:29.308Z,40.90
2018-05-23T19:53:57.124Z,40.40
2018-05-23T19:56:25.528Z,40.60
2018-05-23T19:58:54.650Z,40.70
2018-05-23T20:01:25.228Z,40.60
2018-05-23T20:03:53.654Z,40.60
2018-05-23T20:06:21.460Z,40.60
2018-05-23T20:08:49.222Z,40.60
2018-05-23T20:11:17.306Z,40.80
2018-05-23T20:13:45.211Z,40.70
2018-05-23T20:16:13.861Z,40.90
2018-05-23T20:18:43.196Z,40.90
2018-05-23T20:21:11.854Z,41.20
2018-05-23T20:23:41.337Z,41.60
2018-05-23T20:26:09.300Z,41.20
2018-05-23T20:28:37.987Z,41.50
2018-05-23T20:31:06.288Z,41.70
2018-05-23T20:33:34.065Z,42.00
2018-05-23T20:36:01.777Z,42.50
2018-05-23T20:38:30.273Z,44.80
2018-05-23T20:40:58.008Z,44.80
2018-05-23T20:43:26.765Z,44.60
2018-05-23T20:45:54.566Z,44.70
2018-05-23T20:48:23.216Z,44.50
2018-05-23T20:50:52.002Z,44.60
2018-05-23T20:53:19.866Z,44.30
2018-05-23T20:55:47.732Z,45.30
2018-05-23T20:58:15.603Z,44.50
2018-05-23T21:00:43.464Z,44.30
2018-05-23T21:03:11.333Z,44.30
2018-05-23T21:05:39.266Z,44.30
2018-05-23T21:08:08.393Z,45.40
2018-05-23T21:10:36.361Z,45.40
2018-05-23T21:13:04.227Z,45.80
2018-05-23T21:15:32.024Z,45.80
2018-05-23T21:18:00.674Z,45.20
2018-05-23T21:20:28.547Z,45.20
2018-05-23T21:22:56.409Z,45.40
2018-05-23T21:25:24.270Z,45.30
2018-05-23T21:27:52.181Z,45.10
2018-05-23T21:30:20.821Z,44.70
2018-05-23T21:32:49.199Z,44.70
2018-05-23T21:35:16.896Z,44.70
2018-05-23T21:37:45.366Z,45.10
2018-05-23T21:40:13.967Z,45.40
2018-05-23T21:42:42.511Z,45.70
2018-05-23T21:45:10.368Z,45.70
2018-05-23T21:47:38.336Z,46.80
2018-05-23T21:50:06.047Z,46.30
2018-05-23T21:52:34.518Z,46.80
2018-05-23T21:55:03.164Z,46.80
2018-05-23T21:57:31.030Z,46.80
2018-05-23T21:59:59.099Z,46.70
2018-05-23T22:02:26.801Z,47.20
2018-05-23T22:04:55.243Z,47.60
2018-05-23T22:07:23.106Z,47.50
2018-05-23T22:09:50.972Z,48.00
2018-05-23T22:12:18.836Z,48.30
2018-05-23T22:14:46.704Z,48.50
2018-05-23T22:17:14.569Z,48.70
2018-05-23T22:19:42.433Z,48.80
2018-05-23T22:22:10.199Z,48.80
2018-05-23T22:24:38.120Z,49.30
2018-05-23T22:27:06.748Z,49.70
2018-05-23T22:29:34.612Z,49.60
2018-05-23T22:32:02.481Z,49.80
2018-05-23T22:34:30.346Z,50.10
2018-05-23T22:36:58.211Z,50.20
2018-05-23T22:39:26.078Z,50.30
2018-05-23T22:41:53.940Z,50.70
2018-05-23T22:44:21.806Z,50.70
2018-05-23T22:46:49.676Z,51.00
2018-05-23T22:49:17.644Z,51.20
2018-05-23T22:51:45.711Z,51.10
2018-05-23T22:54:13.577Z,51.50
2018-05-23T22:56:41.444Z,51.70
2018-05-23T22:59:09.311Z,51.90
2018-05-23T23:01:37.176Z,51.90
2018-05-23T23:04:05.764Z,51.80
2018-05-23T23:06:33.624Z,51.90
2018-05-23T23:09:01.489Z,51.80
2018-05-23T23:11:29.355Z,51.90
2018-05-23T23:13:57.220Z,51.80
2018-05-23T23:16:25.086Z,52.00
2018-05-23T23:18:53.430Z,51.80
2018-05-23T23:21:22.046Z,52.20
2018-05-23T23:23:49.913Z,52.10
2018-05-23T23:26:17.779Z,51.90
2018-05-23T23:28:45.643Z,52.10
2018-05-23T23:31:13.510Z,52.60
2018-05-23T23:33:41.375Z,52.90
2018-05-23T23:36:09.240Z,53.00
2018-05-23T23:38:37.107Z,53.00
2018-05-23T23:41:05.177Z,53.30
2018-05-23T23:43:33.042Z,53.60
2018-05-23T23:46:00.910Z,53.60
2018-05-23T23:48:28.773Z,53.60
2018-05-23T23:50:57.150Z,54.10
2018-05-23T23:53:25.021Z,54.10
2018-05-23T23:55:52.883Z,54.30
2018-05-23T23:58:20.751Z,54.50
